Time;durP1;ratioP1;P1;durP2;ratioP2;P2;SDS_P1;SDS_P2;PMS_P1;PMS_P2;Temp;Humidity;BMP_temperature;BMP_pressure;BME280_temperature;BME280_humidity;BME280_pressure;Samples;Min_cycle;Max_cycle;Signal;HPM_P1;HPM_P2
2022/04/28 00:02:15;;;;;;;17.00;7.97;;;;;;;-149.78;100.00;50373.66;4682720;30;20042;-74
2022/04/28 00:04:41;;;;;;;19.80;7.72;;;;;;;-149.78;100.00;50342.38;4697663;30;20054;-74
2022/04/28 00:07:07;;;;;;;17.90;7.82;;;;;;;-149.78;100.00;50350.19;4701707;30;20387;-74
2022/04/28 00:09:32;;;;;;;22.13;8.80;;;;;;;-149.78;100.00;50330.63;4699190;30;20045;-74
2022/04/28 00:11:58;;;;;;;16.80;6.97;;;;;;;-149.78;100.00;50359.97;4691337;30;20044;-74
2022/04/28 00:14:23;;;;;;;14.80;7.03;;;;;;;-149.78;100.00;50326.72;4701233;30;20486;-74
2022/04/28 00:16:49;;;;;;;19.35;6.82;;;;;;;-149.78;100.00;50334.53;4716833;30;20037;-74
2022/04/28 00:19:14;;;;;;;15.95;6.50;;;;;;;-149.78;100.00;50350.19;4715895;30;20144;-74
2022/04/28 00:21:41;;;;;;;19.67;7.40;;;;;;;-149.78;100.00;50307.16;4701498;30;20041;-73
2022/04/28 00:24:06;;;;;;;16.77;6.90;;;;;;;-149.78;100.00;50322.81;4672847;30;20051;-74
2022/04/28 00:26:32;;;;;;;18.70;8.07;;;;;;;-149.78;100.00;50350.19;4716729;30;20069;-74
2022/04/28 00:28:58;;;;;;;26.92;7.97;;;;;;;-149.78;100.00;50361.91;4701748;30;20475;-74
2022/04/28 00:31:24;;;;;;;17.95;7.88;;;;;;;-149.78;100.00;50358.00;4716846;30;20040;-74
2022/04/28 00:33:50;;;;;;;16.35;7.68;;;;;;;-149.78;100.00;50334.53;4701344;30;20056;-74
2022/04/28 00:36:15;;;;;;;18.65;7.55;;;;;;;-149.78;100.00;50350.19;4716633;30;20045;-74
2022/04/28 00:38:41;;;;;;;17.77;6.72;;;;;;;-149.78;100.00;50338.44;4700812;30;20109;-74
2022/04/28 00:41:08;;;;;;;21.02;8.07;;;;;;;-149.78;100.00;50354.09;4716699;30;20045;-74
2022/04/28 00:43:47;;;;;;;19.98;7.55;;;;;;;-149.78;100.00;50336.50;4716968;30;20041;-74
2022/04/28 00:46:13;;;;;;;19.10;7.97;;;;;;;-149.78;100.00;50314.97;4716807;30;20049;-74
2022/04/28 00:51:23;;;;;;;20.20;8.30;;;;;;;-149.78;100.00;50375.63;4703580;30;20471;-74
2022/04/28 00:53:51;;;;;;;15.90;6.88;;;;;;;-149.78;100.00;50365.84;4717112;30;20064;-74
2022/04/28 00:56:18;;;;;;;16.95;7.07;;;;;;;-149.78;100.00;50342.38;4701235;30;20416;-74
2022/04/28 00:58:46;;;;;;;20.58;7.57;;;;;;;-149.78;100.00;50324.75;4716211;30;20057;-75
2022/04/28 01:01:11;;;;;;;19.88;8.20;;;;;;;-149.78;100.00;50356.06;4716621;30;20044;-74
2022/04/28 01:03:37;;;;;;;19.45;8.10;;;;;;;-149.78;100.00;50338.44;4701238;30;20490;-75
2022/04/28 01:06:03;;;;;;;16.73;7.47;;;;;;;-149.78;100.00;50358.00;4699860;30;20098;-75
2022/04/28 01:08:29;;;;;;;14.65;7.10;;;;;;;-149.78;100.00;50338.44;4716632;30;20193;-74
2022/04/28 01:10:57;;;;;;;15.85;7.40;;;;;;;-149.78;100.00;50350.19;4706799;30;20033;-74
2022/04/28 01:13:23;;;;;;;16.02;7.90;;;;;;;-149.78;100.00;50365.84;4686720;30;20050;-74
2022/04/28 01:15:49;;;;;;;19.42;7.13;;;;;;;-149.78;100.00;50373.66;4669585;30;20045;-74
2022/04/28 01:18:17;;;;;;;18.25;8.15;;;;;;;-149.78;100.00;50350.19;4698998;30;20041;-74
2022/04/28 01:20:43;;;;;;;16.42;7.55;;;;;;;-149.78;100.00;50385.38;4698281;30;20034;-74
2022/04/28 01:23:11;;;;;;;23.67;8.05;;;;;;;-149.78;100.00;50369.75;4711577;30;20029;-74
2022/04/28 01:25:37;;;;;;;17.13;8.68;;;;;;;-149.78;100.00;50348.22;4716203;30;20045;-74
2022/04/28 01:28:02;;;;;;;21.40;8.07;;;;;;;-149.78;100.00;50350.19;4716396;30;20040;-74
2022/04/28 01:30:28;;;;;;;21.25;8.05;;;;;;;-149.78;100.00;50334.53;4716432;30;20084;-74
2022/04/28 01:32:59;;;;;;;24.58;7.18;;;;;;;-149.78;100.00;50307.16;4715168;30;20069;-74
2022/04/28 01:35:25;;;;;;;20.92;7.55;;;;;;;-149.78;100.00;50358.00;4716292;30;20443;-73
2022/04/28 01:37:52;;;;;;;21.15;7.47;;;;;;;-149.78;100.00;50314.97;4716355;30;20037;-74
2022/04/28 01:40:19;;;;;;;19.05;7.10;;;;;;;-149.78;100.00;50344.31;4700605;30;20124;-74
2022/04/28 01:42:45;;;;;;;20.08;7.88;;;;;;;-149.78;100.00;50363.88;4700726;30;20090;-74
2022/04/28 01:45:11;;;;;;;21.10;7.80;;;;;;;-149.78;100.00;50385.38;4700723;30;20105;-74
2022/04/28 01:47:41;;;;;;;19.73;8.00;;;;;;;-149.78;100.00;50344.31;4716286;30;20067;-74
2022/04/28 01:50:10;;;;;;;16.15;7.20;;;;;;;-149.78;100.00;50389.31;4719469;30;20037;-74
2022/04/28 01:55:21;;;;;;;17.38;7.75;;;;;;;-149.78;100.00;50373.66;4719384;30;20136;-73
2022/04/28 01:57:47;;;;;;;18.45;7.53;;;;;;;-149.78;100.00;50346.28;4719407;30;20045;-74
2022/04/28 02:00:13;;;;;;;19.50;7.18;;;;;;;-149.78;100.00;50385.38;4719391;30;20118;-74
2022/04/28 02:02:39;;;;;;;23.25;7.53;;;;;;;-149.78;100.00;50354.09;4719530;30;20096;-74
2022/04/28 02:05:10;;;;;;;17.73;7.00;;;;;;;-149.78;100.00;50338.44;4704510;30;20049;-74
2022/04/28 02:07:44;;;;;;;21.27;6.53;;;;;;;-149.78;100.00;50346.28;4704150;30;20506;-74
2022/04/28 02:10:10;;;;;;;24.27;7.97;;;;;;;-149.78;100.00;50373.66;4702202;30;20076;-74
2022/04/28 02:12:37;;;;;;;18.98;7.75;;;;;;;-149.78;100.00;50338.44;4702008;30;20079;-74
2022/04/28 02:15:03;;;;;;;17.52;7.20;;;;;;;-149.78;100.00;50369.75;4701888;30;20033;-74
2022/04/28 02:17:34;;;;;;;19.40;7.10;;;;;;;-149.78;100.00;50297.38;4701610;30;20081;-74
2022/04/28 02:20:09;;;;;;;17.08;7.05;;;;;;;-149.78;100.00;50295.44;4700719;30;20065;-74
2022/04/28 02:22:36;;;;;;;27.38;7.53;;;;;;;-149.78;100.00;50287.59;4701746;30;20049;-74
2022/04/28 02:25:02;;;;;;;21.27;7.22;;;;;;;-149.78;100.00;50348.22;4701184;30;20041;-74
2022/04/28 02:27:28;;;;;;;19.80;8.00;;;;;;;-149.78;100.00;50350.19;4686178;30;20044;-74
2022/04/28 02:29:54;;;;;;;19.02;6.97;;;;;;;-149.78;100.00;50346.28;4704423;30;20033;-74
2022/04/28 02:32:21;;;;;;;17.23;7.00;;;;;;;-149.78;100.00;50369.75;4718803;30;20049;-74
2022/04/28 02:34:47;;;;;;;20.17;7.35;;;;;;;-149.78;100.00;50365.84;4719028;30;20045;-74
2022/04/28 02:37:13;;;;;;;18.38;6.97;;;;;;;-149.78;100.00;50373.66;4706677;30;20041;-74
2022/04/28 02:39:39;;;;;;;22.63;7.80;;;;;;;-149.78;100.00;50346.28;4717928;30;20505;-74
2022/04/28 02:42:05;;;;;;;17.15;7.55;;;;;;;-149.78;100.00;50348.22;4718717;30;20041;-74
2022/04/28 02:44:31;;;;;;;17.40;7.43;;;;;;;-149.78;100.00;50381.47;4718722;30;20099;-74
2022/04/28 02:46:58;;;;;;;19.17;7.53;;;;;;;-149.78;100.00;50314.97;4694834;30;20053;-74
2022/04/28 02:49:23;;;;;;;21.08;7.25;;;;;;;-149.78;100.00;50326.72;4657354;30;20046;-74
2022/04/28 02:51:49;;;;;;;21.33;7.40;;;;;;;-149.78;100.00;50358.00;4701262;30;20104;-74
2022/04/28 02:54:15;;;;;;;16.50;7.50;;;;;;;-149.78;100.00;50350.19;4685734;30;20629;-74
2022/04/28 02:56:41;;;;;;;19.90;8.25;;;;;;;-149.78;100.00;50361.91;4717848;30;20064;-74
2022/04/28 02:59:06;;;;;;;17.60;7.45;;;;;;;-149.78;100.00;50336.50;4718296;30;20410;-74
2022/04/28 03:01:32;;;;;;;32.63;8.27;;;;;;;-149.78;100.00;50318.91;4716742;30;20553;-74
2022/04/28 03:03:58;;;;;;;18.95;7.88;;;;;;;-149.78;100.00;50350.19;4718532;30;20041;-74
2022/04/28 03:11:53;;;;;;;17.95;7.38;;;;;;;-149.78;100.00;50377.56;4714511;30;20391;-74
2022/04/28 03:14:21;;;;;;;21.48;7.40;;;;;;;-149.78;100.00;50352.16;4703151;30;20041;-73
2022/04/28 03:16:46;;;;;;;18.92;7.45;;;;;;;-149.78;100.00;50354.09;4711372;30;20169;-74
2022/04/28 03:19:12;;;;;;;21.65;8.63;;;;;;;-149.78;100.00;50359.97;4679111;30;20136;-74
2022/04/28 03:21:38;;;;;;;22.80;8.27;;;;;;;-149.78;100.00;50361.91;4702479;30;20122;-74
2022/04/28 03:24:04;;;;;;;19.55;8.05;;;;;;;-149.78;100.00;50346.28;4702539;30;20490;-74
2022/04/28 03:26:31;;;;;;;19.13;7.95;;;;;;;-149.78;100.00;50359.97;4717581;30;20045;-74
2022/04/28 03:28:57;;;;;;;23.25;7.95;;;;;;;-149.78;100.00;50361.91;4701807;30;20048;-74
2022/04/28 03:31:22;;;;;;;18.48;8.20;;;;;;;-149.78;100.00;50346.28;4704590;30;20041;-74
2022/04/28 03:33:48;;;;;;;19.60;8.07;;;;;;;-149.78;100.00;50338.44;4684921;30;20041;-74
2022/04/28 03:38:58;;;;;;;17.02;8.52;;;;;;;-149.78;100.00;50346.28;4700272;30;20145;-74
2022/04/28 03:41:24;;;;;;;17.80;7.53;;;;;;;-149.78;100.00;50358.00;4699349;30;20511;-74
2022/04/28 03:43:50;;;;;;;18.92;7.93;;;;;;;-149.78;100.00;50314.97;4700362;30;20907;-74
2022/04/28 03:46:18;;;;;;;16.83;7.80;;;;;;;-149.78;100.00;50346.28;4700249;30;20619;-74
2022/04/28 03:48:44;;;;;;;23.52;8.77;;;;;;;-149.78;100.00;50342.38;4700321;30;20432;-74
2022/04/28 03:51:10;;;;;;;26.27;8.18;;;;;;;-149.78;100.00;50346.28;4700260;30;20037;-74
2022/04/28 03:53:35;;;;;;;22.80;8.05;;;;;;;-149.78;100.00;50336.50;4684654;30;20053;-74
2022/04/28 03:56:02;;;;;;;20.13;7.97;;;;;;;-149.78;100.00;50369.75;4700165;30;20053;-74
2022/04/28 03:58:28;;;;;;;25.42;8.23;;;;;;;-149.78;100.00;50322.81;4684296;30;20398;-74
2022/04/28 04:00:54;;;;;;;17.85;7.50;;;;;;;-149.78;100.00;50371.69;4684585;30;20526;-74
2022/04/28 04:03:20;;;;;;;20.05;8.70;;;;;;;-149.78;100.00;50369.75;4712709;30;20070;-74
2022/04/28 04:05:49;;;;;;;25.90;8.85;;;;;;;-149.78;100.00;50301.28;4717382;30;20044;-74
2022/04/28 04:08:15;;;;;;;23.05;8.52;;;;;;;-149.78;100.00;50330.63;4672830;30;20049;-74
2022/04/28 04:10:41;;;;;;;20.65;8.90;;;;;;;-149.78;100.00;50322.81;4701874;30;20060;-74
2022/04/28 04:13:09;;;;;;;24.08;8.85;;;;;;;-149.78;100.00;50340.41;4716408;30;20041;-75
2022/04/28 04:15:35;;;;;;;20.55;8.30;;;;;;;-149.78;100.00;50332.59;4701716;30;20037;-74
2022/04/28 04:18:02;;;;;;;22.95;9.57;;;;;;;-149.78;100.00;50311.06;4701664;30;20040;-74
2022/04/28 04:20:28;;;;;;;23.23;8.90;;;;;;;-149.78;100.00;50342.38;4701683;30;20150;-74
2022/04/28 04:22:54;;;;;;;21.38;9.23;;;;;;;-149.78;100.00;50340.41;4717075;30;20562;-75
2022/04/28 04:25:21;;;;;;;23.08;10.32;;;;;;;-149.78;100.00;50381.47;4717089;30;20250;-74
2022/04/28 04:27:47;;;;;;;27.65;9.63;;;;;;;-149.78;100.00;50350.19;4717176;30;20514;-74
2022/04/28 04:32:58;;;;;;;23.33;9.68;;;;;;;-149.78;100.00;50369.75;4703903;30;20098;-74
2022/04/28 04:35:24;;;;;;;30.75;9.95;;;;;;;-149.78;100.00;50344.31;4716913;30;20490;-74
2022/04/28 04:37:54;;;;;;;21.17;9.13;;;;;;;-149.78;100.00;50348.22;4685604;30;20033;-74
2022/04/28 04:40:20;;;;;;;21.58;9.75;;;;;;;-149.78;100.00;50369.75;4684103;30;20065;-74
2022/04/28 04:42:47;;;;;;;25.92;9.70;;;;;;;-149.78;100.00;50346.28;4673582;30;20049;-74
2022/04/28 04:45:13;;;;;;;27.13;10.27;;;;;;;-149.78;100.00;50342.38;4699407;30;20050;-74
2022/04/28 04:47:39;;;;;;;21.77;9.48;;;;;;;-149.78;100.00;50344.31;4683792;30;20064;-74
2022/04/28 04:50:07;;;;;;;24.30;9.90;;;;;;;-149.78;100.00;50326.72;4684102;30;20056;-74
2022/04/28 04:52:34;;;;;;;18.17;8.75;;;;;;;-149.78;100.00;50338.44;4699311;30;20550;-74
2022/04/28 04:55:00;;;;;;;24.30;9.90;;;;;;;-149.78;100.00;50322.81;4683795;30;20502;-74
2022/04/28 04:57:26;;;;;;;23.92;10.43;;;;;;;-149.78;100.00;50359.97;4699087;30;20045;-74
2022/04/28 04:59:53;;;;;;;23.17;9.75;;;;;;;-149.78;100.00;50322.81;4699196;30;20068;-75
2022/04/28 05:02:19;;;;;;;24.55;9.90;;;;;;;-149.78;100.00;50348.22;4699322;30;20043;-74
2022/04/28 05:04:44;;;;;;;23.90;10.25;;;;;;;-149.78;100.00;50354.09;4686708;30;20045;-75
2022/04/28 05:07:10;;;;;;;21.05;9.60;;;;;;;-149.78;100.00;50358.00;4716637;30;20056;-75
2022/04/28 05:09:37;;;;;;;23.50;9.80;;;;;;;-149.78;100.00;50309.13;4716567;30;20051;-75
2022/04/28 05:12:04;;;;;;;27.55;10.23;;;;;;;-149.78;100.00;50338.44;4701070;30;20049;-75
2022/04/28 05:14:30;;;;;;;28.40;10.18;;;;;;;-149.78;100.00;50326.72;4716439;30;20071;-74
2022/04/28 05:16:57;;;;;;;20.90;9.80;;;;;;;-149.78;100.00;50334.53;4700906;30;20134;-74
2022/04/28 05:19:24;;;;;;;20.30;9.95;;;;;;;-149.78;100.00;50334.53;4701014;30;20041;-74
2022/04/28 05:21:50;;;;;;;17.17;9.25;;;;;;;-149.78;100.00;50330.63;4716550;30;20044;-75
2022/04/28 05:24:16;;;;;;;24.80;10.10;;;;;;;-149.78;100.00;50404.94;4718695;30;20052;-75
2022/04/28 05:26:42;;;;;;;21.50;9.25;;;;;;;-149.78;100.00;50314.97;4704420;30;20746;-74
2022/04/28 05:29:08;;;;;;;29.88;10.32;;;;;;;-149.78;100.00;50322.81;4704471;30;20179;-74
2022/04/28 05:31:33;;;;;;;25.02;10.40;;;;;;;-149.78;100.00;50359.97;4704239;30;20036;-74
2022/04/28 05:33:59;;;;;;;21.95;9.90;;;;;;;-149.78;100.00;50373.66;4719948;30;20037;-75
2022/04/28 05:36:26;;;;;;;20.67;9.52;;;;;;;-149.78;100.00;50326.72;4704031;30;20093;-74
2022/04/28 05:38:52;;;;;;;23.20;9.95;;;;;;;-149.78;100.00;50369.75;4719675;30;20512;-74
2022/04/28 05:41:18;;;;;;;22.73;10.23;;;;;;;-149.78;100.00;50314.97;4689845;30;20115;-75
2022/04/28 05:46:28;;;;;;;27.15;10.32;;;;;;;-149.78;100.00;50330.63;4719615;30;20049;-74
2022/04/28 05:48:55;;;;;;;20.85;10.23;;;;;;;-149.78;100.00;50328.69;4719739;30;20402;-74
2022/04/28 05:51:20;;;;;;;24.02;10.40;;;;;;;-149.78;100.00;50354.09;4719648;30;20060;-74
2022/04/28 05:53:46;;;;;;;20.42;10.20;;;;;;;-149.78;100.00;50307.16;4719494;30;20049;-75
2022/04/28 05:56:12;;;;;;;25.88;10.45;;;;;;;-149.78;100.00;50338.44;4699053;30;20045;-74
2022/04/28 05:58:37;;;;;;;27.10;10.30;;;;;;;-149.78;100.00;50311.06;4668980;30;20054;-74
2022/04/28 06:01:03;;;;;;;23.75;10.13;;;;;;;-149.78;100.00;50365.84;4691744;30;20060;-74
2022/04/28 06:03:28;;;;;;;23.02;9.98;;;;;;;-149.78;100.00;50334.53;4681335;30;20480;-74
2022/04/28 06:05:54;;;;;;;25.60;10.52;;;;;;;-149.78;100.00;50346.28;4680317;30;20185;-74
2022/04/28 06:08:20;;;;;;;25.60;10.00;;;;;;;-149.78;100.00;50365.84;4708958;30;20037;-75
2022/04/28 06:10:45;;;;;;;20.85;9.65;;;;;;;-149.78;100.00;50365.84;4703737;30;20098;-74
2022/04/28 06:13:11;;;;;;;22.17;9.73;;;;;;;-149.78;100.00;50330.63;4718702;30;20033;-74
2022/04/28 06:15:36;;;;;;;23.35;9.93;;;;;;;-149.78;100.00;50314.97;4709389;30;20038;-74
2022/04/28 06:18:02;;;;;;;24.73;9.65;;;;;;;-149.78;100.00;50342.38;4685089;30;20042;-75
2022/04/28 06:20:28;;;;;;;27.67;10.43;;;;;;;-149.78;100.00;50338.44;4700199;30;20053;-72
2022/04/28 06:22:53;;;;;;;24.48;11.45;;;;;;;-149.78;100.00;50358.00;4657046;30;20631;-74
2022/04/28 06:25:19;;;;;;;27.83;10.98;;;;;;;-149.78;100.00;50358.00;4686397;30;20042;-74
2022/04/28 06:27:45;;;;;;;25.95;9.75;;;;;;;-149.78;100.00;50371.69;4687858;30;20048;-74
2022/04/28 06:30:11;;;;;;;26.60;10.48;;;;;;;-149.78;100.00;50352.16;4692556;30;20059;-70
2022/04/28 06:32:37;;;;;;;30.75;9.80;;;;;;;-149.78;100.00;50330.63;4701361;30;20815;-75
2022/04/28 06:35:03;;;;;;;30.67;10.32;;;;;;;-149.78;100.00;50354.09;4685665;30;20380;-75
2022/04/28 06:37:29;;;;;;;26.23;10.30;;;;;;;-149.78;100.00;50350.19;4690208;30;20037;-72
2022/04/28 06:39:55;;;;;;;28.33;10.45;;;;;;;-149.78;100.00;50346.28;4707422;30;20056;-74
2022/04/28 06:42:20;;;;;;;23.40;9.57;;;;;;;-149.78;100.00;50338.44;4692736;30;20041;-75
2022/04/28 06:44:46;;;;;;;21.95;9.73;;;;;;;-149.78;100.00;50381.47;4700398;30;20053;-75
2022/04/28 06:47:12;;;;;;;26.25;10.35;;;;;;;-149.78;100.00;50354.09;4699996;30;20049;-72
2022/04/28 06:49:37;;;;;;;27.08;10.60;;;;;;;-149.78;100.00;50354.09;4704157;30;20045;-73
2022/04/28 06:52:03;;;;;;;26.60;9.60;;;;;;;-149.78;100.00;50330.63;4685031;30;20096;-72
2022/04/28 06:54:29;;;;;;;23.83;9.65;;;;;;;-149.78;100.00;50356.06;4691421;30;20038;-73
2022/04/28 06:56:54;;;;;;;24.23;10.52;;;;;;;-149.78;100.00;50346.28;4701345;30;20566;-75
2022/04/28 06:59:20;;;;;;;24.60;10.02;;;;;;;-149.78;100.00;50332.59;4671739;30;20054;-73
2022/04/28 07:01:46;;;;;;;19.58;9.50;;;;;;;-149.78;100.00;50346.28;4699737;30;20107;-73
2022/04/28 07:04:12;;;;;;;25.50;10.05;;;;;;;-149.78;100.00;50344.31;4698988;30;20034;-73
2022/04/28 07:06:38;;;;;;;26.80;10.55;;;;;;;-149.78;100.00;50338.44;4675574;30;20056;-73
2022/04/28 07:09:03;;;;;;;25.02;9.73;;;;;;;-149.78;100.00;50324.75;4674473;30;20038;-72
2022/04/28 07:11:29;;;;;;;30.45;9.95;;;;;;;-149.78;100.00;50369.75;4693749;30;20042;-73
2022/04/28 07:13:55;;;;;;;21.27;9.77;;;;;;;-149.78;100.00;50354.09;4695340;30;20038;-73
2022/04/28 07:16:21;;;;;;;21.75;9.52;;;;;;;-149.78;100.00;50389.31;4693184;30;20050;-72
2022/04/28 07:18:46;;;;;;;24.98;10.07;;;;;;;-149.78;100.00;50328.69;4698535;30;20375;-71
2022/04/28 07:21:14;;;;;;;25.80;11.18;;;;;;;-149.78;100.00;50338.44;4701115;30;20100;-73
2022/04/28 07:23:40;;;;;;;26.48;10.02;;;;;;;-149.78;100.00;50334.53;4685336;30;20041;-73
2022/04/28 07:26:06;;;;;;;22.23;9.82;;;;;;;-149.78;100.00;50348.22;4699496;30;20041;-74
2022/04/28 07:28:31;;;;;;;23.58;9.82;;;;;;;-149.78;100.00;50365.84;4683662;30;20125;-74
2022/04/28 07:30:57;;;;;;;29.88;10.25;;;;;;;-149.78;100.00;50283.69;4663096;30;20046;-74
2022/04/28 07:33:22;;;;;;;28.50;10.15;;;;;;;-149.78;100.00;50359.97;4698619;30;20130;-73
2022/04/28 07:35:48;;;;;;;22.58;9.32;;;;;;;-149.78;100.00;50334.53;4681533;30;20437;-73
2022/04/28 07:38:14;;;;;;;22.13;10.20;;;;;;;-149.78;100.00;50354.09;4676877;30;20434;-74
2022/04/28 07:40:41;;;;;;;20.55;9.80;;;;;;;-149.78;100.00;50361.91;4682861;30;20042;-73
2022/04/28 07:43:08;;;;;;;23.83;10.25;;;;;;;-149.78;100.00;50324.75;4704314;30;20045;-74
2022/04/28 07:45:33;;;;;;;22.17;10.30;;;;;;;-149.78;100.00;50330.63;4673537;30;20045;-73
2022/04/28 07:48:00;;;;;;;21.92;10.18;;;;;;;-149.78;100.00;50348.22;4717309;30;20045;-73
2022/04/28 07:50:28;;;;;;;23.92;10.25;;;;;;;-149.78;100.00;50358.00;4717629;30;20074;-73
2022/04/28 07:52:53;;;;;;;26.92;10.07;;;;;;;-149.78;100.00;50338.44;4717327;30;20041;-73
2022/04/28 07:55:19;;;;;;;29.35;10.00;;;;;;;-149.78;100.00;50328.69;4700228;30;20494;-74
2022/04/28 07:57:45;;;;;;;27.33;10.45;;;;;;;-149.78;100.00;50330.63;4661563;30;20052;-73
2022/04/28 08:00:11;;;;;;;25.50;9.63;;;;;;;-149.78;100.00;50318.91;4713401;30;20072;-70
2022/04/28 08:02:37;;;;;;;19.48;9.65;;;;;;;-149.78;100.00;50334.53;4700847;30;20054;-74
2022/04/28 08:05:08;;;;;;;22.70;9.57;;;;;;;-149.78;100.00;50332.59;4698000;30;20045;-76
2022/04/28 08:07:34;;;;;;;26.15;9.73;;;;;;;-149.78;100.00;50338.44;4679561;30;20463;-75
2022/04/28 08:10:01;;;;;;;21.50;9.63;;;;;;;-149.78;100.00;50361.91;4684753;30;20482;-75
2022/04/28 08:12:27;;;;;;;26.85;9.88;;;;;;;-149.78;100.00;50330.63;4662765;30;20412;-74
2022/04/28 08:14:53;;;;;;;24.27;10.05;;;;;;;-149.78;100.00;50365.84;4683448;30;20373;-73
2022/04/28 08:17:19;;;;;;;18.83;9.25;;;;;;;-149.78;100.00;50311.06;4679891;30;20049;-73
2022/04/28 08:19:44;;;;;;;19.83;8.80;;;;;;;-149.78;100.00;50338.44;4699454;30;20050;-72
2022/04/28 08:22:11;;;;;;;20.75;9.40;;;;;;;-149.78;100.00;50377.56;4684298;30;20181;-73
2022/04/28 08:24:36;;;;;;;20.98;9.25;;;;;;;-149.78;100.00;50346.28;4699434;30;20049;-73
2022/04/28 08:27:03;;;;;;;21.88;9.90;;;;;;;-149.78;100.00;50336.50;4699462;30;20041;-72
2022/04/28 08:29:28;;;;;;;22.08;9.38;;;;;;;-149.78;100.00;50352.16;4683212;30;20071;-72
2022/04/28 08:31:54;;;;;;;23.25;10.27;;;;;;;-149.78;100.00;50328.69;4683905;30;20076;-73
2022/04/28 08:34:24;;;;;;;22.98;10.70;;;;;;;-149.78;100.00;50326.72;4669990;30;20112;-73
2022/04/28 08:36:50;;;;;;;23.42;10.80;;;;;;;-149.78;100.00;50338.44;4698145;30;20053;-72
2022/04/28 08:39:17;;;;;;;29.38;12.02;;;;;;;-149.78;100.00;50326.72;4698714;30;20047;-73
2022/04/28 08:41:47;;;;;;;29.25;10.98;;;;;;;-149.78;100.00;50295.44;4683628;30;20449;-73
2022/04/28 08:44:17;;;;;;;24.95;11.63;;;;;;;-149.78;100.00;50320.84;4683376;30;20057;-74
2022/04/28 08:46:53;;;;;;;29.98;12.32;;;;;;;-149.78;100.00;50342.38;4697648;30;20094;-73
2022/04/28 08:49:29;;;;;;;25.50;11.50;;;;;;;-149.78;100.00;50338.44;4698483;30;20037;-73
2022/04/28 08:51:57;;;;;;;24.48;11.40;;;;;;;-149.78;100.00;50314.97;4683548;30;20431;-74
2022/04/28 08:54:25;;;;;;;28.65;12.38;;;;;;;-149.78;100.00;50311.06;4687338;30;20045;-73
2022/04/28 08:56:55;;;;;;;31.55;13.63;;;;;;;-149.78;100.00;50314.97;4696882;30;20108;-71
2022/04/28 08:59:22;;;;;;;31.48;13.02;;;;;;;-149.78;100.00;50326.72;4696496;30;20223;-73
2022/04/28 09:01:50;;;;;;;31.52;12.50;;;;;;;-149.78;100.00;50346.28;4698868;30;20049;-74
2022/04/28 09:04:17;;;;;;;26.98;12.52;;;;;;;-149.78;100.00;50311.06;4669242;30;20406;-72
2022/04/28 09:06:44;;;;;;;28.45;12.40;;;;;;;-149.78;100.00;50301.28;4698917;30;20054;-72
2022/04/28 09:09:15;;;;;;;28.08;12.57;;;;;;;-149.78;100.00;50309.13;4698509;30;20452;-72
2022/04/28 09:11:42;;;;;;;28.92;11.82;;;;;;;-149.78;100.00;50295.44;4698821;30;20041;-72
2022/04/28 09:14:12;;;;;;;31.98;12.48;;;;;;;-149.78;100.00;50277.81;4696527;30;20696;-72
2022/04/28 09:16:39;;;;;;;29.73;11.48;;;;;;;-149.78;100.00;50303.25;4688089;30;20129;-72
2022/04/28 09:19:05;;;;;;;26.73;12.05;;;;;;;-149.78;100.00;50299.34;4681534;30;20510;-72
2022/04/28 09:21:35;;;;;;;26.42;10.68;;;;;;;-149.78;100.00;50311.06;4666376;30;20051;-72
2022/04/28 09:24:03;;;;;;;21.95;11.48;;;;;;;-149.78;100.00;50322.81;4680480;30;20065;-72
2022/04/28 09:26:32;;;;;;;20.77;10.82;;;;;;;-149.78;100.00;50326.72;4660453;30;20195;-72
2022/04/28 09:29:02;;;;;;;34.38;10.90;;;;;;;-149.78;100.00;50330.63;4702815;30;20088;-72
2022/04/28 09:31:39;;;;;;;23.75;10.20;;;;;;;-149.78;100.00;50283.69;4683362;30;20049;-72
2022/04/28 09:34:13;;;;;;;21.88;10.40;;;;;;;-149.78;100.00;50287.59;4698768;30;20049;-73
2022/04/28 09:36:41;;;;;;;24.38;10.48;;;;;;;-149.78;100.00;50344.31;4689032;30;20041;-72
2022/04/28 09:39:08;;;;;;;18.33;9.85;;;;;;;-149.78;100.00;50342.38;4701213;30;20037;-72
2022/04/28 09:44:20;;;;;;;23.88;10.48;;;;;;;-149.78;100.00;50338.44;4681806;30;20053;-72
2022/04/28 09:46:47;;;;;;;22.98;9.70;;;;;;;-149.78;100.00;50322.81;4706222;30;20040;-72
2022/04/28 09:49:15;;;;;;;22.30;10.73;;;;;;;-149.78;100.00;50342.38;4698537;30;20045;-74
2022/04/28 09:51:41;;;;;;;22.33;9.63;;;;;;;-149.78;100.00;50307.16;4682222;30;20041;-72
2022/04/28 09:54:12;;;;;;;22.05;9.23;;;;;;;-149.78;100.00;50358.00;4692226;30;20034;-72
2022/04/28 09:56:40;;;;;;;20.98;8.65;;;;;;;-149.78;100.00;50320.84;4715845;30;20045;-72
2022/04/28 09:59:09;;;;;;;20.02;8.07;;;;;;;-149.78;100.00;50307.16;4704507;30;20102;-72
2022/04/28 10:01:37;;;;;;;21.20;8.18;;;;;;;-149.78;100.00;50295.44;4696436;30;20081;-72
2022/04/28 10:04:06;;;;;;;16.92;8.35;;;;;;;-149.78;100.00;50301.28;4704441;30;20053;-72
2022/04/28 10:06:34;;;;;;;16.83;8.60;;;;;;;-149.78;100.00;50326.72;4701446;30;20034;-72
2022/04/28 10:09:09;;;;;;;15.70;8.52;;;;;;;-149.78;100.00;50342.38;4715964;30;20124;-72
2022/04/28 10:11:37;;;;;;;19.27;8.70;;;;;;;-149.78;100.00;50322.81;4685788;30;20050;-72
2022/04/28 10:14:03;;;;;;;20.73;9.55;;;;;;;-149.78;100.00;50361.91;4695053;30;20049;-72
2022/04/28 10:16:29;;;;;;;15.13;8.68;;;;;;;-149.78;100.00;50314.97;4683463;30;20065;-72
2022/04/28 10:19:10;;;;;;;18.83;9.20;;;;;;;-149.78;100.00;50297.38;4700225;30;20046;-73
2022/04/28 10:21:59;;;;;;;18.83;9.15;;;;;;;-149.78;100.00;50314.97;4706334;30;20182;-72
2022/04/28 10:33:10;;;;;;;22.67;8.90;;;;;;;-149.78;100.00;50320.84;4707069;30;20052;-71
2022/04/28 10:35:40;;;;;;;23.52;9.18;;;;;;;-149.78;100.00;50293.47;4686507;30;20037;-72
2022/04/28 10:38:12;;;;;;;21.50;8.07;;;;;;;-149.78;100.00;50283.69;4706400;30;20048;-73
2022/04/28 10:40:43;;;;;;;21.40;9.40;;;;;;;-149.78;100.00;50309.13;4712191;30;20045;-74
2022/04/28 10:43:23;;;;;;;21.92;9.18;;;;;;;-149.78;100.00;50303.25;4697923;30;20056;-74
2022/04/28 10:45:51;;;;;;;22.40;8.85;;;;;;;-149.78;100.00;50322.81;4702109;30;20040;-73
2022/04/28 10:48:28;;;;;;;17.55;8.55;;;;;;;-149.78;100.00;50338.44;4697957;30;20064;-73
2022/04/28 10:51:04;;;;;;;20.20;8.65;;;;;;;-149.78;100.00;50322.81;4716837;30;20071;-73
2022/04/28 10:53:30;;;;;;;16.98;8.07;;;;;;;-149.78;100.00;50342.38;4707420;30;20041;-73
2022/04/28 10:56:04;;;;;;;20.23;9.38;;;;;;;-149.78;100.00;50338.44;4693145;30;20076;-73
2022/04/28 10:58:29;;;;;;;25.20;8.90;;;;;;;-149.78;100.00;50322.81;4717960;30;20041;-73
2022/04/28 11:00:56;;;;;;;22.08;8.75;;;;;;;-149.78;100.00;50311.06;4718209;30;20140;-73
2022/04/28 11:03:48;;;;;;;21.67;8.85;;;;;;;-149.78;100.00;50324.75;4700853;30;20402;-73
2022/04/28 11:06:16;;;;;;;26.80;9.07;;;;;;;-149.78;100.00;50307.16;4700642;30;20037;-72
2022/04/28 11:08:53;;;;;;;20.38;8.60;;;;;;;-149.78;100.00;50332.59;4700539;30;20037;-72
2022/04/28 11:11:20;;;;;;;21.13;8.68;;;;;;;-149.78;100.00;50291.50;4670500;30;20072;-74
2022/04/28 11:13:56;;;;;;;26.52;9.77;;;;;;;-149.78;100.00;50307.16;4697731;30;20072;-73
2022/04/28 11:16:22;;;;;;;22.52;9.68;;;;;;;-149.78;100.00;50318.91;4700549;30;20080;-73
2022/04/28 11:18:48;;;;;;;20.23;8.52;;;;;;;-149.78;100.00;50311.06;4685012;30;20088;-72
2022/04/28 11:21:15;;;;;;;22.85;9.30;;;;;;;-149.78;100.00;50299.34;4670537;30;20144;-72
2022/04/28 11:23:45;;;;;;;22.45;9.23;;;;;;;-149.78;100.00;50313.03;4700431;30;20041;-72
2022/04/28 11:26:12;;;;;;;15.52;8.02;;;;;;;-149.78;100.00;50311.06;4684913;30;20076;-73
2022/04/28 11:28:39;;;;;;;17.75;8.93;;;;;;;-149.78;100.00;50287.59;4684646;30;20095;-72
2022/04/28 11:31:13;;;;;;;25.38;9.05;;;;;;;-149.78;100.00;50322.81;4700164;30;20108;-72